Time;durP1;ratioP1;P1;durP2;ratioP2;P2;SDS_P1;SDS_P2;PMS_P1;PMS_P2;Temp;Humidity;BMP_temperature;BMP_pressure;BME280_temperature;BME280_humidity;BME280_pressure;Samples;Min_cycle;Max_cycle;Signal;HPM_P1;HPM_P2
2022/10/03 00:01:56;;;;;;;6.93;6.32;;;13.10;99.90;;;;;;5032230;28;20196;-65
2022/10/03 00:04:43;;;;;;;5.50;4.68;;;13.20;99.90;;;;;;5029546;28;20190;-69
2022/10/03 00:07:23;;;;;;;4.60;4.20;;;13.20;99.90;;;;;;5019152;28;20651;-65
2022/10/03 00:10:27;;;;;;;4.78;4.35;;;13.20;99.90;;;;;;5029225;28;20667;-65
2022/10/03 00:13:06;;;;;;;5.00;4.50;;;13.20;99.90;;;;;;5028733;28;20281;-65
2022/10/03 00:15:46;;;;;;;5.35;4.85;;;13.00;99.90;;;;;;5034772;28;20213;-65
2022/10/03 00:18:40;;;;;;;5.18;4.70;;;13.20;99.90;;;;;;5031118;28;20554;-65
2022/10/03 00:21:21;;;;;;;5.28;4.75;;;13.30;99.90;;;;;;5044949;28;20276;-66
2022/10/03 00:23:55;;;;;;;4.63;4.22;;;13.30;99.90;;;;;;5021653;28;20538;-65
2022/10/03 00:26:34;;;;;;;4.80;4.40;;;13.30;99.90;;;;;;5023478;28;20544;-65
2022/10/03 00:29:15;;;;;;;4.60;4.13;;;13.40;99.90;;;;;;5040368;28;20186;-65
2022/10/03 00:32:19;;;;;;;4.25;3.85;;;13.40;99.90;;;;;;5023762;28;20188;-65
2022/10/03 00:35:03;;;;;;;5.50;5.00;;;13.50;99.90;;;;;;5013810;28;20204;-65
2022/10/03 00:37:55;;;;;;;4.35;3.95;;;13.10;99.90;;;;;;5041032;28;20192;-65
2022/10/03 00:40:59;;;;;;;4.75;3.95;;;13.30;99.90;;;;;;5027995;28;20265;-65
2022/10/03 00:43:42;;;;;;;5.18;4.47;;;13.30;99.90;;;;;;5029429;28;20196;-65
2022/10/03 00:46:29;;;;;;;4.50;4.10;;;13.10;99.90;;;;;;5028886;28;20268;-65
2022/10/03 00:49:12;;;;;;;5.13;4.65;;;13.40;99.90;;;;;;5030660;28;20229;-65
2022/10/03 00:51:57;;;;;;;4.65;4.25;;;13.30;99.90;;;;;;5021320;28;20201;-65
2022/10/03 00:54:22;;;;;;;4.15;3.85;;;13.50;99.90;;;;;;5014630;28;20537;-65
2022/10/03 00:57:05;;;;;;;4.53;4.10;;;13.30;99.90;;;;;;5017126;28;20221;-65
2022/10/03 01:00:00;;;;;;;4.82;3.80;;;13.20;99.90;;;;;;5028872;28;20224;-66
2022/10/03 01:02:28;;;;;;;5.38;4.30;;;13.20;99.90;;;;;;5010034;28;20195;-66
2022/10/03 01:05:22;;;;;;;4.75;4.35;;;13.10;99.90;;;;;;5019316;28;20581;-66
2022/10/03 01:08:22;;;;;;;6.82;4.43;;;13.10;99.90;;;;;;5031097;28;20182;-65
2022/10/03 01:11:06;;;;;;;6.85;4.70;;;13.00;99.90;;;;;;5017443;28;20194;-66
2022/10/03 01:13:59;;;;;;;5.43;4.93;;;13.10;99.90;;;;;;5012471;28;20191;-66
2022/10/03 01:17:01;;;;;;;5.30;4.90;;;13.00;99.90;;;;;;5025950;28;20205;-65
2022/10/03 01:19:46;;;;;;;6.13;5.43;;;13.20;99.90;;;;;;5021456;28;20640;-65
2022/10/03 01:22:24;;;;;;;4.55;4.15;;;13.10;99.90;;;;;;5031125;28;20221;-65
2022/10/03 01:24:59;;;;;;;4.90;4.50;;;13.20;99.90;;;;;;5030726;28;20690;-65
2022/10/03 01:30:41;;;;;;;6.70;5.47;;;13.20;99.90;;;;;;5027770;28;20577;-65
2022/10/03 01:33:17;;;;;;;5.20;4.70;;;13.00;99.90;;;;;;5036023;28;20181;-66
2022/10/03 01:36:06;;;;;;;5.50;5.00;;;13.00;99.90;;;;;;5025973;28;20202;-65
2022/10/03 01:39:04;;;;;;;5.88;4.55;;;13.00;99.90;;;;;;5019146;28;20205;-66
2022/10/03 01:41:33;;;;;;;5.97;5.45;;;12.80;99.90;;;;;;5029618;28;20596;-65
2022/10/03 01:44:23;;;;;;;6.10;5.50;;;12.80;99.90;;;;;;5029988;28;20181;-66
2022/10/03 01:47:37;;;;;;;5.80;5.30;;;12.70;99.90;;;;;;5029995;28;20800;-65
2022/10/03 01:50:16;;;;;;;6.13;5.53;;;12.90;99.90;;;;;;5001848;28;20191;-65
2022/10/03 01:52:57;;;;;;;6.47;5.82;;;12.90;99.90;;;;;;5007909;28;20186;-64
2022/10/03 01:55:40;;;;;;;7.20;5.47;;;12.80;99.90;;;;;;5026302;28;20299;-65
2022/10/03 01:58:19;;;;;;;7.25;5.28;;;13.00;99.90;;;;;;5018121;28;20235;-66
2022/10/03 02:00:57;;;;;;;5.28;4.78;;;13.20;99.90;;;;;;5027543;28;20624;-66
2022/10/03 02:03:27;;;;;;;5.20;4.80;;;13.10;99.90;;;;;;5022998;28;20213;-65
2022/10/03 02:06:00;;;;;;;5.22;4.82;;;13.00;99.90;;;;;;5025581;28;20198;-64
2022/10/03 02:08:44;;;;;;;5.25;4.85;;;12.90;99.90;;;;;;5028756;28;20718;-64
2022/10/03 02:11:21;;;;;;;5.88;5.38;;;12.70;99.90;;;;;;5025912;28;20279;-63
2022/10/03 02:13:57;;;;;;;8.23;5.15;;;13.00;99.90;;;;;;5018679;28;20835;-66
2022/10/03 02:16:40;;;;;;;6.13;5.53;;;12.60;99.90;;;;;;5029724;28;20244;-65
2022/10/03 02:19:25;;;;;;;6.10;5.40;;;12.90;99.90;;;;;;5026733;28;20268;-66
2022/10/03 02:21:56;;;;;;;6.10;5.60;;;12.80;99.90;;;;;;5041710;28;20670;-65
2022/10/03 02:24:49;;;;;;;6.60;5.95;;;12.90;99.90;;;;;;5052862;28;20399;-66
2022/10/03 02:27:41;;;;;;;8.98;6.20;;;12.90;99.90;;;;;;5040437;28;20183;-66
2022/10/03 02:30:18;;;;;;;6.43;5.18;;;12.70;99.90;;;;;;5043057;28;20182;-66
2022/10/03 02:33:08;;;;;;;6.80;6.20;;;12.60;99.90;;;;;;5048974;28;20188;-65
2022/10/03 02:36:02;;;;;;;7.90;7.10;;;12.60;99.90;;;;;;5034258;28;20578;-66
2022/10/03 02:39:03;;;;;;;9.90;6.05;;;13.10;99.90;;;;;;5019178;28;20206;-65
2022/10/03 02:42:02;;;;;;;7.20;6.60;;;13.00;99.90;;;;;;5023757;28;20280;-65
2022/10/03 02:44:53;;;;;;;6.78;6.15;;;13.00;99.90;;;;;;5039641;28;20545;-65
2022/10/03 02:47:24;;;;;;;6.40;5.80;;;13.10;99.90;;;;;;5043133;28;20178;-66
2022/10/03 02:50:34;;;;;;;6.60;6.00;;;13.00;99.90;;;;;;5045650;28;20197;-65
2022/10/03 02:53:08;;;;;;;6.35;5.85;;;12.90;99.90;;;;;;5023436;28;20186;-66
2022/10/03 02:55:40;;;;;;;7.90;7.20;;;12.60;99.90;;;;;;5034859;28;20215;-65
2022/10/03 02:58:11;;;;;;;7.53;6.80;;;12.90;99.90;;;;;;5023467;28;20209;-65
2022/10/03 03:01:14;;;;;;;8.82;6.80;;;12.60;99.90;;;;;;5036445;28;20197;-65
2022/10/03 03:03:43;;;;;;;7.72;6.90;;;12.50;99.90;;;;;;5034705;28;20245;-65
2022/10/03 03:06:36;;;;;;;7.63;6.93;;;12.70;99.90;;;;;;5024961;28;20196;-64
2022/10/03 03:09:38;;;;;;;7.97;6.75;;;12.60;99.90;;;;;;5029935;28;20217;-65
2022/10/03 03:12:16;;;;;;;8.32;7.20;;;12.90;99.90;;;;;;5019734;28;20678;-65
2022/10/03 03:15:29;;;;;;;8.45;7.30;;;12.50;99.90;;;;;;5027775;28;20203;-65
2022/10/03 03:18:03;;;;;;;9.20;7.50;;;12.60;99.90;;;;;;5052575;28;20266;-65
2022/10/03 03:20:53;;;;;;;10.88;8.27;;;12.50;99.90;;;;;;5033245;28;20650;-64
2022/10/03 03:23:40;;;;;;;9.25;7.63;;;12.40;99.90;;;;;;5047097;28;20193;-65
2022/10/03 03:26:39;;;;;;;7.40;6.70;;;12.60;99.90;;;;;;5026982;28;20203;-65
2022/10/03 03:29:55;;;;;;;8.00;7.22;;;12.60;99.90;;;;;;5025779;28;20178;-65
2022/10/03 03:32:46;;;;;;;7.30;6.60;;;12.50;99.90;;;;;;5009704;28;20205;-65
2022/10/03 03:35:45;;;;;;;7.07;6.15;;;12.30;99.90;;;;;;5034043;28;20198;-65
2022/10/03 03:38:25;;;;;;;7.82;7.13;;;12.30;99.90;;;;;;5025781;28;20300;-65
2022/10/03 03:41:18;;;;;;;9.52;7.65;;;12.50;99.90;;;;;;5028787;28;20201;-65
2022/10/03 03:43:58;;;;;;;8.05;7.25;;;12.50;99.90;;;;;;5036743;28;20200;-65
2022/10/03 03:46:57;;;;;;;8.77;7.78;;;12.20;99.90;;;;;;5037438;28;20209;-65
2022/10/03 03:49:46;;;;;;;9.32;8.43;;;12.30;99.90;;;;;;5022307;28;20242;-65
2022/10/03 03:52:34;;;;;;;9.80;8.00;;;12.40;99.90;;;;;;5025101;28;20186;-65
2022/10/03 03:55:15;;;;;;;9.80;8.60;;;12.10;99.90;;;;;;5030843;28;20222;-65
2022/10/03 03:58:00;;;;;;;12.02;8.52;;;11.90;99.90;;;;;;5025503;28;20195;-65
2022/10/03 04:00:52;;;;;;;9.52;8.18;;;12.10;99.90;;;;;;5033470;28;20241;-65
2022/10/03 04:04:01;;;;;;;9.32;8.43;;;12.00;99.90;;;;;;5030641;28;20217;-65
2022/10/03 04:06:59;;;;;;;9.25;8.15;;;11.90;99.90;;;;;;5023049;28;20214;-65
2022/10/03 04:09:52;;;;;;;9.55;8.65;;;12.10;99.90;;;;;;5026295;28;20627;-65
2022/10/03 04:12:24;;;;;;;13.20;8.93;;;11.80;99.90;;;;;;5030191;28;20215;-65
2022/10/03 04:15:37;;;;;;;10.73;8.25;;;11.80;99.90;;;;;;5033518;28;20210;-65
2022/10/03 04:21:19;;;;;;;12.90;8.23;;;11.70;99.90;;;;;;5025540;28;20196;-65
2022/10/03 04:24:04;;;;;;;9.30;8.40;;;12.10;99.90;;;;;;5029011;28;20445;-65
2022/10/03 04:26:48;;;;;;;9.35;8.43;;;11.90;99.90;;;;;;5027836;28;20297;-65
2022/10/03 04:29:41;;;;;;;9.45;8.55;;;11.90;99.90;;;;;;5020956;28;20349;-65
2022/10/03 04:32:48;;;;;;;11.32;9.85;;;11.80;99.90;;;;;;5023614;28;20189;-64
2022/10/03 04:35:23;;;;;;;13.10;8.00;;;11.60;99.90;;;;;;5029067;28;20238;-63
2022/10/03 04:38:04;;;;;;;10.43;9.30;;;11.60;99.90;;;;;;5034652;28;20203;-63
2022/10/03 04:40:38;;;;;;;19.80;10.60;;;11.70;99.90;;;;;;5028917;28;20186;-64
2022/10/03 04:43:23;;;;;;;11.85;10.60;;;11.90;99.90;;;;;;5027110;28;20258;-63
2022/10/03 04:46:21;;;;;;;11.55;9.45;;;11.80;99.90;;;;;;5029145;28;20209;-63
2022/10/03 04:49:21;;;;;;;9.05;8.15;;;11.90;99.90;;;;;;5022788;28;20595;-64
2022/10/03 04:52:32;;;;;;;11.45;8.70;;;11.60;99.90;;;;;;5030605;28;20235;-64
2022/10/03 04:55:16;;;;;;;11.27;9.20;;;12.00;99.90;;;;;;5027894;28;20639;-64
2022/10/03 04:57:49;;;;;;;9.45;8.05;;;12.00;99.90;;;;;;5028723;28;20188;-63
2022/10/03 05:00:40;;;;;;;10.50;8.95;;;12.10;99.90;;;;;;5043341;28;20193;-65
2022/10/03 05:03:09;;;;;;;9.02;8.13;;;12.10;99.90;;;;;;5026494;28;20188;-64
2022/10/03 05:05:50;;;;;;;10.55;7.50;;;12.00;99.90;;;;;;5028987;28;20212;-64
2022/10/03 05:08:28;;;;;;;8.65;7.18;;;11.90;99.90;;;;;;5023922;28;20192;-64
2022/10/03 05:10:59;;;;;;;10.60;8.95;;;12.00;99.90;;;;;;5027029;28;20230;-64
2022/10/03 05:13:50;;;;;;;9.30;8.40;;;11.90;99.90;;;;;;5029740;28;20186;-64
2022/10/03 05:16:37;;;;;;;8.85;7.35;;;11.90;99.90;;;;;;5026811;28;20214;-64
2022/10/03 05:19:36;;;;;;;9.13;8.23;;;12.00;99.90;;;;;;5025020;28;20209;-64
2022/10/03 05:22:15;;;;;;;11.10;8.85;;;12.10;99.90;;;;;;5028655;28;20201;-65
2022/10/03 05:25:27;;;;;;;9.20;8.27;;;12.00;99.90;;;;;;5023586;28;20181;-65
2022/10/03 05:28:11;;;;;;;9.00;8.10;;;12.40;99.90;;;;;;5028774;28;20199;-64
2022/10/03 05:31:00;;;;;;;9.55;8.63;;;12.40;99.90;;;;;;5029987;28;20654;-64
2022/10/03 05:33:41;;;;;;;8.25;7.22;;;12.30;99.90;;;;;;5028159;28;20174;-64
2022/10/03 05:36:18;;;;;;;9.93;8.93;;;12.10;99.90;;;;;;5025596;28;20686;-64
2022/10/03 05:39:22;;;;;;;9.90;8.40;;;12.30;99.90;;;;;;5026487;28;20210;-64
2022/10/03 05:41:52;;;;;;;8.52;7.72;;;12.20;99.90;;;;;;5016141;28;20502;-58
2022/10/03 05:44:30;;;;;;;11.13;8.05;;;12.50;99.90;;;;;;5012961;28;20230;-59
2022/10/03 05:50:18;;;;;;;9.27;8.02;;;12.20;99.90;;;;;;5049932;28;20333;-59
2022/10/03 05:53:11;;;;;;;11.30;8.30;;;12.20;99.90;;;;;;5039366;28;20663;-59
2022/10/03 05:56:34;;;;;;;11.25;8.80;;;12.30;99.90;;;;;;5026857;28;20224;-64
2022/10/03 05:59:27;;;;;;;9.15;8.13;;;12.20;99.90;;;;;;5024046;28;20210;-65
2022/10/03 06:02:05;;;;;;;10.45;7.78;;;12.50;99.90;;;;;;5027749;28;20252;-65
2022/10/03 06:05:00;;;;;;;9.93;8.02;;;12.30;99.90;;;;;;5030436;28;20702;-65
2022/10/03 06:07:46;;;;;;;13.00;10.15;;;12.40;99.90;;;;;;5020869;28;20314;-65
2022/10/03 06:10:20;;;;;;;11.00;9.52;;;12.70;99.90;;;;;;5027371;28;20685;-65
2022/10/03 06:13:02;;;;;;;14.45;11.90;;;12.80;99.90;;;;;;5026342;28;20642;-65
2022/10/03 06:15:53;;;;;;;15.02;11.10;;;12.70;99.90;;;;;;5028590;28;20292;-65
2022/10/03 06:18:35;;;;;;;13.77;11.25;;;12.60;99.90;;;;;;5029991;28;20736;-65
2022/10/03 06:21:18;;;;;;;15.15;10.48;;;12.90;99.90;;;;;;5024380;28;20198;-65
2022/10/03 06:24:16;;;;;;;13.18;11.23;;;12.70;99.90;;;;;;5021839;28;20183;-65
2022/10/03 06:26:55;;;;;;;12.93;10.57;;;12.80;99.90;;;;;;5015399;28;20352;-65
2022/10/03 06:29:42;;;;;;;13.48;11.38;;;12.80;99.90;;;;;;5030434;28;20181;-65
2022/10/03 06:32:47;;;;;;;17.45;12.20;;;12.90;99.90;;;;;;5021809;28;20182;-65
2022/10/03 06:35:14;;;;;;;14.30;11.02;;;13.20;99.90;;;;;;5026047;28;20236;-65
2022/10/03 06:37:58;;;;;;;19.05;11.90;;;13.10;99.90;;;;;;5029658;28;20240;-65
2022/10/03 06:40:57;;;;;;;18.52;12.30;;;12.90;99.90;;;;;;5029404;28;20192;-65
2022/10/03 06:43:45;;;;;;;15.25;13.15;;;12.60;99.90;;;;;;5016028;28;20330;-65
2022/10/03 06:46:45;;;;;;;16.45;12.10;;;12.50;99.90;;;;;;5029130;28;20305;-65
2022/10/03 06:49:20;;;;;;;16.40;13.20;;;12.90;99.90;;;;;;5009991;28;20263;-65
2022/10/03 06:52:09;;;;;;;14.90;11.93;;;12.60;99.90;;;;;;5025283;28;20190;-65
2022/10/03 06:55:12;;;;;;;16.05;12.15;;;12.80;99.90;;;;;;5020759;28;20205;-65
2022/10/03 06:58:03;;;;;;;14.57;12.25;;;12.80;99.90;;;;;;5024165;28;20185;-66
2022/10/03 07:00:58;;;;;;;16.50;12.07;;;12.80;99.90;;;;;;5024860;28;20219;-64
2022/10/03 07:03:45;;;;;;;15.70;11.85;;;13.10;99.90;;;;;;5020695;28;20182;-64
2022/10/03 07:06:30;;;;;;;15.02;11.40;;;12.70;99.90;;;;;;5027383;28;20690;-71
2022/10/03 07:09:27;;;;;;;15.93;11.55;;;13.00;99.90;;;;;;5031949;28;20213;-64
2022/10/03 07:12:20;;;;;;;19.17;14.93;;;12.90;99.90;;;;;;5029499;28;20193;-66
2022/10/03 07:15:21;;;;;;;16.30;12.07;;;13.00;99.90;;;;;;5034401;28;20192;-66
2022/10/03 07:17:49;;;;;;;16.00;12.63;;;13.30;99.90;;;;;;5031568;28;20611;-67
2022/10/03 07:20:36;;;;;;;18.38;13.13;;;13.30;99.90;;;;;;5029067;28;20189;-67
2022/10/03 07:23:17;;;;;;;18.58;12.57;;;13.50;99.90;;;;;;5029606;28;20178;-75
2022/10/03 07:26:20;;;;;;;18.20;12.75;;;13.30;99.90;;;;;;5028979;28;20202;-73
2022/10/03 07:29:05;;;;;;;20.08;13.38;;;13.70;99.90;;;;;;5027842;28;20670;-64
2022/10/03 07:31:31;;;;;;;21.02;13.60;;;13.30;99.90;;;;;;5024499;28;20186;-68
2022/10/03 07:34:16;;;;;;;17.30;13.93;;;13.30;99.90;;;;;;5025359;28;20186;-69
2022/10/03 07:40:19;;;;;;;18.77;14.68;;;13.30;99.90;;;;;;5022247;28;20268;-67
2022/10/03 07:43:08;;;;;;;19.73;14.07;;;13.70;99.90;;;;;;5024671;28;20241;-68
2022/10/03 07:46:03;;;;;;;18.58;13.13;;;13.50;99.90;;;;;;5027100;28;20194;-68
2022/10/03 07:48:55;;;;;;;25.20;16.92;;;13.20;99.90;;;;;;5028015;28;20205;-67
2022/10/03 07:52:06;;;;;;;19.85;14.93;;;13.30;99.90;;;;;;5027212;28;20584;-72
2022/10/03 07:54:41;;;;;;;17.67;13.68;;;13.50;99.90;;;;;;5027284;28;20186;-69
2022/10/03 07:57:54;;;;;;;18.15;14.75;;;13.70;99.90;;;;;;5027920;28;20181;-67
2022/10/03 08:00:21;;;;;;;15.73;12.95;;;13.70;99.90;;;;;;5006154;28;20686;-69
2022/10/03 08:03:06;;;;;;;17.38;13.82;;;13.60;99.90;;;;;;5029242;28;20193;-73
2022/10/03 08:05:45;;;;;;;22.33;13.55;;;13.80;99.90;;;;;;5027054;28;20674;-69
2022/10/03 08:08:32;;;;;;;17.60;13.50;;;13.80;99.90;;;;;;5024991;28;20263;-67
2022/10/03 08:11:20;;;;;;;16.98;13.25;;;13.90;99.90;;;;;;5024414;28;21483;-71
2022/10/03 08:14:17;;;;;;;17.33;12.70;;;14.00;99.90;;;;;;5030003;28;20193;-70
2022/10/03 08:17:04;;;;;;;16.52;11.68;;;14.10;99.90;;;;;;5019153;28;20206;-69
2022/10/03 08:19:49;;;;;;;14.98;13.38;;;14.00;99.90;;;;;;5028165;28;20217;-71
2022/10/03 08:22:41;;;;;;;18.23;13.90;;;14.00;99.90;;;;;;5033990;28;20236;-69
2022/10/03 08:25:37;;;;;;;17.05;12.95;;;14.10;99.90;;;;;;5028547;28;20202;-70
2022/10/03 08:28:31;;;;;;;21.60;14.82;;;13.80;99.90;;;;;;5024112;28;20273;-73
2022/10/03 08:31:15;;;;;;;15.25;12.25;;;13.90;99.90;;;;;;5029319;28;20261;-76
2022/10/03 08:34:05;;;;;;;13.40;10.95;;;13.70;99.90;;;;;;5047011;28;20181;-74
2022/10/03 08:37:00;;;;;;;17.30;12.75;;;13.80;99.90;;;;;;5027669;28;20213;-73
2022/10/03 08:39:44;;;;;;;13.57;10.90;;;13.90;99.90;;;;;;5021842;28;20682;-73
2022/10/03 08:42:31;;;;;;;12.95;10.45;;;14.00;99.90;;;;;;5024047;28;20202;-75
2022/10/03 08:45:23;;;;;;;13.45;10.38;;;14.10;99.90;;;;;;5030811;28;20197;-73
2022/10/03 08:47:49;;;;;;;17.67;11.82;;;14.30;99.90;;;;;;5021853;28;20220;-73
2022/10/03 08:50:26;;;;;;;14.10;11.67;;;14.00;99.90;;;;;;5029412;28;20647;-78
2022/10/03 08:53:30;;;;;;;14.60;11.52;;;14.30;99.90;;;;;;5032666;28;20178;-80
2022/10/03 08:56:18;;;;;;;13.38;10.77;;;14.60;99.90;;;;;;5028676;28;20197;-74
2022/10/03 08:58:55;;;;;;;11.50;9.20;;;14.90;99.90;;;;;;5027838;28;20220;-68
2022/10/03 09:01:26;;;;;;;14.73;9.52;;;14.80;99.90;;;;;;5024009;28;20179;-67
2022/10/03 09:04:27;;;;;;;13.45;9.20;;;15.10;99.90;;;;;;5025990;28;20190;-67
2022/10/03 09:07:07;;;;;;;13.43;9.75;;;14.80;99.90;;;;;;5019679;28;20289;-77
2022/10/03 09:10:07;;;;;;;10.93;9.82;;;14.70;99.90;;;;;;5029984;28;20190;-78
2022/10/03 09:12:51;;;;;;;11.57;9.13;;;14.80;99.90;;;;;;5032575;28;20182;-73
2022/10/03 09:15:48;;;;;;;12.43;8.93;;;14.80;99.90;;;;;;5035026;28;20198;-68
2022/10/03 09:18:51;;;;;;;10.88;9.38;;;14.80;99.90;;;;;;5029308;28;20206;-67
2022/10/03 09:21:44;;;;;;;10.60;9.52;;;15.20;99.90;;;;;;5019526;28;20276;-68
2022/10/03 09:24:31;;;;;;;10.07;8.57;;;15.20;99.90;;;;;;5026071;28;20181;-67
2022/10/03 09:27:12;;;;;;;9.50;8.38;;;15.40;99.90;;;;;;5036550;28;20189;-68
2022/10/03 09:30:03;;;;;;;10.15;7.07;;;15.90;99.90;;;;;;5030211;28;20201;-68
2022/10/03 09:32:43;;;;;;;13.38;7.55;;;16.10;99.90;;;;;;5037281;28;20214;-68
2022/10/03 09:35:28;;;;;;;9.75;8.10;;;15.60;99.90;;;;;;5040681;28;20201;-68
2022/10/03 09:38:12;;;;;;;8.50;7.32;;;15.90;99.90;;;;;;5028057;28;20189;-66
2022/10/03 09:40:41;;;;;;;8.25;7.35;;;15.70;99.90;;;;;;5032522;28;20621;-67
2022/10/03 09:43:13;;;;;;;9.57;7.30;;;15.90;99.90;;;;;;5032956;28;20173;-67
2022/10/03 09:45:55;;;;;;;10.80;6.82;;;16.20;99.90;;;;;;5031882;28;20293;-67
2022/10/03 09:48:45;;;;;;;14.50;6.90;;;17.00;99.90;;;;;;5029760;28;20190;-69
2022/10/03 09:51:20;;;;;;;8.43;7.50;;;17.90;99.90;;;;;;5029023;28;20196;-70
2022/10/03 09:54:24;;;;;;;8.07;7.22;;;17.90;99.90;;;;;;5022746;28;20185;-70
2022/10/03 09:57:14;;;;;;;12.75;7.00;;;17.70;99.90;;;;;;5021642;28;20735;-69
2022/10/03 10:00:18;;;;;;;7.70;6.45;;;17.50;99.90;;;;;;5029841;28;20219;-70
2022/10/03 10:03:02;;;;;;;7.88;6.22;;;16.60;99.90;;;;;;5016041;28;20197;-69
2022/10/03 10:05:47;;;;;;;10.52;6.72;;;16.40;99.90;;;;;;5030902;28;21045;-69
2022/10/03 10:08:21;;;;;;;9.45;7.07;;;16.30;99.90;;;;;;5036711;28;20263;-69
2022/10/03 10:10:50;;;;;;;8.90;6.95;;;16.30;99.90;;;;;;5034661;28;20185;-69
2022/10/03 10:13:34;;;;;;;12.80;6.03;;;16.50;99.90;;;;;;5037977;28;20237;-69
2022/10/03 10:16:08;;;;;;;6.78;5.63;;;16.40;99.90;;;;;;5033529;28;20211;-70
2022/10/03 10:18:59;;;;;;;7.70;6.50;;;16.60;99.90;;;;;;5028344;28;20213;-69
2022/10/03 10:22:11;;;;;;;7.95;6.03;;;16.80;99.90;;;;;;5022420;28;20753;-69
2022/10/03 10:24:50;;;;;;;6.90;6.05;;;16.90;99.90;;;;;;5019563;28;20206;-70
2022/10/03 10:28:02;;;;;;;8.23;5.68;;;16.40;99.90;;;;;;5026829;28;20185;-70
2022/10/03 10:31:09;;;;;;;9.68;5.88;;;16.80;99.90;;;;;;5004962;28;20591;-70
2022/10/03 10:34:02;;;;;;;8.95;6.30;;;17.20;99.90;;;;;;5001198;28;20197;-69
2022/10/03 10:36:43;;;;;;;5.72;5.13;;;17.20;99.90;;;;;;5038199;28;20577;-69
2022/10/03 10:39:35;;;;;;;9.95;5.28;;;17.00;99.90;;;;;;5027839;28;20217;-66
2022/10/03 10:42:16;;;;;;;10.85;6.28;;;17.00;99.90;;;;;;5041831;28;20186;-66
2022/10/03 10:44:41;;;;;;;5.50;5.00;;;17.10;99.90;;;;;;5032440;28;20182;-66
2022/10/03 10:47:16;;;;;;;12.20;6.20;;;16.80;99.90;;;;;;5022479;28;20213;-62
2022/10/03 10:50:36;;;;;;;6.35;5.32;;;16.80;99.70;;;;;;5032243;28;20231;-66
2022/10/03 10:53:39;;;;;;;7.72;6.90;;;16.50;99.90;;;;;;5013853;28;20201;-66
2022/10/03 10:56:08;;;;;;;6.90;5.70;;;17.00;99.90;;;;;;5023549;28;20214;-64
2022/10/03 10:59:04;;;;;;;8.57;6.47;;;16.70;99.90;;;;;;5033343;28;20580;-66
2022/10/03 11:02:08;;;;;;;8.32;5.63;;;17.10;99.90;;;;;;5029144;28;20533;-65
2022/10/03 11:04:39;;;;;;;7.20;6.28;;;17.10;99.90;;;;;;5029832;28;20285;-65
2022/10/03 11:07:36;;;;;;;10.10;5.90;;;17.00;99.90;;;;;;5031777;28;20182;-67
2022/10/03 11:10:21;;;;;;;6.40;5.70;;;17.10;99.90;;;;;;5029187;28;20217;-66
2022/10/03 11:13:26;;;;;;;6.82;6.00;;;16.90;99.90;;;;;;5031574;28;20528;-65
2022/10/03 11:16:10;;;;;;;9.00;6.68;;;16.70;99.90;;;;;;5031960;28;20288;-66
2022/10/03 11:19:09;;;;;;;10.98;6.80;;;16.60;99.90;;;;;;5027913;28;20206;-66
2022/10/03 11:22:24;;;;;;;9.75;5.80;;;16.60;99.90;;;;;;5028889;28;20682;-68
2022/10/03 11:25:06;;;;;;;11.52;7.43;;;16.30;99.90;;;;;;4994684;28;20183;-68
2022/10/03 11:28:09;;;;;;;6.43;5.93;;;16.50;99.90;;;;;;5029556;28;20174;-67
2022/10/03 11:31:12;;;;;;;9.00;5.60;;;16.50;99.90;;;;;;5028514;28;20209;-66
2022/10/03 11:34:05;;;;;;;9.35;5.38;;;16.50;99.60;;;;;;5029994;28;20189;-66
2022/10/03 11:36:55;;;;;;;6.55;5.40;;;16.70;99.80;;;;;;5026003;28;20278;-68
2022/10/03 11:39:42;;;;;;;6.68;5.65;;;17.00;99.40;;;;;;5027258;28;20581;-65
2022/10/03 11:42:17;;;;;;;7.88;5.90;;;17.30;99.20;;;;;;5018780;28;20196;-68
2022/10/03 11:45:13;;;;;;;6.95;5.03;;;17.60;99.00;;;;;;5028939;28;20193;-64
2022/10/03 11:47:42;;;;;;;6.32;5.72;;;17.50;98.10;;;;;;5024882;28;20273;-64
2022/10/03 11:50:31;;;;;;;11.43;6.88;;;17.50;97.90;;;;;;5028815;28;20194;-64
2022/10/03 11:53:31;;;;;;;7.00;6.30;;;17.30;97.10;;;;;;5025659;28;20547;-66
2022/10/03 11:56:06;;;;;;;6.78;5.18;;;17.10;97.20;;;;;;5034129;28;20221;-64
2022/10/03 11:59:19;;;;;;;5.65;5.00;;;17.10;98.20;;;;;;5032191;28;20205;-64
2022/10/03 12:02:08;;;;;;;7.70;5.40;;;16.90;99.70;;;;;;5014867;28;20204;-64
2022/10/03 12:04:43;;;;;;;6.35;4.00;;;16.80;99.30;;;;;;5031304;28;20191;-64
2022/10/03 12:10:31;;;;;;;7.20;4.22;;;16.70;97.60;;;;;;5022843;28;20244;-68
2022/10/03 12:13:03;;;;;;;4.30;3.75;;;16.90;96.90;;;;;;5030416;28;20186;-65
2022/10/03 12:15:28;;;;;;;5.55;4.45;;;16.60;96.30;;;;;;5030263;28;20210;-67
2022/10/03 12:18:00;;;;;;;6.73;4.43;;;16.70;96.50;;;;;;5028425;28;20194;-64
2022/10/03 12:21:05;;;;;;;4.85;3.65;;;16.60;96.80;;;;;;5030446;28;20258;-64
2022/10/03 12:23:37;;;;;;;4.88;3.80;;;16.70;95.60;;;;;;5030373;28;20304;-65
2022/10/03 12:26:06;;;;;;;5.22;3.50;;;16.60;96.10;;;;;;5025168;28;20206;-72
2022/10/03 12:28:41;;;;;;;4.15;3.13;;;16.80;97.00;;;;;;5028908;28;20269;-64
2022/10/03 12:31:28;;;;;;;5.38;3.17;;;17.00;96.60;;;;;;5031173;28;20184;-60
2022/10/03 12:34:21;;;;;;;5.65;5.05;;;17.50;95.00;;;;;;5027178;28;20186;-61
2022/10/03 12:37:05;;;;;;;8.43;4.15;;;17.30;95.90;;;;;;5025680;28;20210;-62
2022/10/03 12:39:38;;;;;;;5.70;4.32;;;17.30;95.60;;;;;;5028282;28;20213;-60
2022/10/03 12:42:16;;;;;;;5.82;4.20;;;17.30;95.00;;;;;;5024044;28;20182;-60
2022/10/03 12:44:58;;;;;;;6.30;4.80;;;17.60;95.30;;;;;;5030160;28;20189;-60
2022/10/03 12:48:10;;;;;;;7.65;4.15;;;17.50;95.30;;;;;;5028371;28;20903;-60
2022/10/03 12:51:14;;;;;;;7.43;4.15;;;17.70;94.80;;;;;;5028674;28;20240;-61
2022/10/03 12:53:54;;;;;;;4.93;4.43;;;17.60;95.30;;;;;;5030539;28;20183;-60
2022/10/03 12:56:52;;;;;;;4.70;3.35;;;17.60;95.60;;;;;;5027783;28;20675;-60
2022/10/03 12:59:24;;;;;;;3.83;3.40;;;17.60;94.60;;;;;;5026580;28;20297;-60
2022/10/03 13:02:15;;;;;;;6.20;3.35;;;17.40;94.80;;;;;;5025742;28;20218;-60
2022/10/03 13:05:14;;;;;;;5.55;4.00;;;17.20;94.70;;;;;;5023118;28;20248;-61
2022/10/03 13:07:51;;;;;;;5.78;4.95;;;17.20;95.50;;;;;;5024741;28;20194;-60
2022/10/03 13:10:41;;;;;;;4.18;3.67;;;17.20;95.30;;;;;;5026633;28;21081;-61
2022/10/03 13:13:22;;;;;;;6.55;4.22;;;17.30;95.30;;;;;;5028941;28;20255;-60
2022/10/03 13:16:07;;;;;;;6.05;4.78;;;17.20;95.10;;;;;;5029418;28;20206;-61
2022/10/03 13:18:51;;;;;;;4.18;3.60;;;17.40;95.50;;;;;;5022133;28;20217;-60
2022/10/03 13:21:29;;;;;;;7.88;4.25;;;17.70;94.50;;;;;;5021825;28;20192;-62
2022/10/03 13:23:57;;;;;;;4.60;3.35;;;17.50;93.80;;;;;;5028570;28;20200;-61
2022/10/03 13:27:05;;;;;;;4.50;4.07;;;17.80;93.80;;;;;;5027677;28;20190;-61
2022/10/03 13:29:41;;;;;;;5.50;3.80;;;17.80;94.20;;;;;;5034280;28;20674;-62
2022/10/03 13:32:17;;;;;;;9.30;4.40;;;17.20;93.70;;;;;;5022092;28;20189;-61
2022/10/03 13:34:54;;;;;;;4.90;3.58;;;17.50;94.40;;;;;;5025356;28;20192;-60
2022/10/03 13:38:03;;;;;;;4.22;3.63;;;17.30;94.40;;;;;;5018147;28;20650;-60
2022/10/03 13:40:35;;;;;;;4.82;3.17;;;17.40;94.30;;;;;;4969299;28;20211;-60
2022/10/03 13:43:02;;;;;;;5.10;3.88;;;17.40;94.60;;;;;;5015208;28;20189;-60
2022/10/03 13:45:30;;;;;;;7.72;3.00;;;17.30;94.70;;;;;;5029717;28;20210;-62
2022/10/03 13:48:10;;;;;;;4.93;3.40;;;17.40;94.30;;;;;;5028629;28;20239;-62
2022/10/03 13:50:47;;;;;;;3.78;3.40;;;17.20;93.60;;;;;;5023742;28;20269;-61
2022/10/03 13:53:25;;;;;;;6.20;3.30;;;17.30;94.10;;;;;;5028335;28;20647;-60
2022/10/03 13:55:56;;;;;;;5.43;3.45;;;17.20;94.00;;;;;;5032594;28;20233;-61
2022/10/03 13:58:34;;;;;;;5.45;3.58;;;16.80;94.10;;;;;;5036766;28;20212;-60
2022/10/03 14:01:33;;;;;;;5.05;3.58;;;16.80;94.40;;;;;;5048010;28;20185;-60
2022/10/03 14:04:20;;;;;;;6.88;3.60;;;16.70;95.40;;;;;;5050545;28;20238;-60
2022/10/03 14:07:07;;;;;;;6.57;4.15;;;16.90;94.70;;;;;;5035988;28;20576;-60
2022/10/03 14:09:53;;;;;;;4.85;3.42;;;16.90;94.40;;;;;;5045202;28;20193;-61
2022/10/03 14:12:48;;;;;;;4.35;3.95;;;16.80;94.70;;;;;;5020447;28;20208;-60
2022/10/03 14:15:32;;;;;;;5.35;3.45;;;16.80;94.70;;;;;;5043476;28;20206;-61
2022/10/03 14:18:29;;;;;;;9.25;3.53;;;16.90;95.70;;;;;;5022348;28;20189;-60
2022/10/03 14:21:13;;;;;;;5.00;4.00;;;17.00;94.50;;;;;;5035433;28;20285;-60
2022/10/03 14:23:51;;;;;;;5.80;3.72;;;17.00;95.20;;;;;;5048687;28;20185;-60
2022/10/03 14:26:41;;;;;;;4.50;2.90;;;16.90;93.80;;;;;;5030738;28;20206;-60
2022/10/03 14:29:21;;;;;;;5.97;3.75;;;17.00;94.00;;;;;;5044527;28;20193;-60
2022/10/03 14:32:11;;;;;;;6.05;4.13;;;17.50;94.50;;;;;;5043122;28;20181;-60
2022/10/03 14:34:40;;;;;;;5.28;3.65;;;17.20;94.10;;;;;;5029325;28;20181;-60
2022/10/03 14:37:11;;;;;;;8.02;6.32;;;17.90;94.30;;;;;;5035285;28;20193;-60